KHLR/HLR METAR and TAF weather

Enter ICAO airport designator
Station Type Date Time Source
KHLR METAR 2019/06/18 12:55 UTC NOAA

KHLR 181255Z 00000KT 7SM BKN050 BKN060 24/20 A2994 RMK AO2A SLPNO WND DATA ESTMD ALSTG ESTMD


Station Type Date Time Source
KHLR Decoded METAR 2019/06/18 12:55 UTC NOAA

Fort Hood, Hood AAF Ft Hood, TX, United States (KHLR) 31-08N 097-42W
Jun 18, 2019 - 08:55 AM EDT / 2019.06.18 1255 UTC
Wind: Calm:0
Visibility: 7 mile(s):0
Sky conditions: mostly cloudy
Temperature: 75 F (24 C)
Dew Point: 68 F (20 C)
Relative Humidity: 78%
Pressure (altimeter): 29.94 in. Hg (1013 hPa)
ob: KHLR 181255Z 00000KT 7SM BKN050 BKN060 24/20 A2994 RMK AO2A SLPNO WND DATA ESTMD ALSTG ESTMD
cycle: 13

Station Type Date Time Source
KHLR TAF UTC NOAA

Error!

Example: see airport list